Time;durP1;ratioP1;P1;durP2;ratioP2;P2;SDS_P1;SDS_P2;PMS_P1;PMS_P2;Temp;Humidity;BMP_temperature;BMP_pressure;BME280_temperature;BME280_humidity;BME280_pressure;Samples;Min_cycle;Max_cycle;Signal;HPM_P1;HPM_P2
2022/08/11 00:03:11;;;;;;;18.92;13.30;;;;;;;19.07;94.65;97796.44;10254025;28;20727;-57
2022/08/11 00:08:19;;;;;;;18.50;14.57;;;;;;;18.98;94.64;97785.31;10252925;28;20066;-57
2022/08/11 00:13:19;;;;;;;20.50;14.52;;;;;;;19.01;95.30;97795.72;10232214;28;20069;-57
2022/08/11 00:18:19;;;;;;;16.85;14.23;;;;;;;18.94;95.24;97783.69;10235891;28;20153;-57
2022/08/11 00:23:19;;;;;;;21.33;14.45;;;;;;;18.84;95.36;97787.56;10244557;28;20528;-57
2022/08/11 00:28:25;;;;;;;19.17;15.75;;;;;;;18.64;96.96;97779.44;10252339;28;20077;-57
2022/08/11 00:33:32;;;;;;;21.05;15.88;;;;;;;18.54;97.55;97787.63;10242826;28;20070;-56
2022/08/11 00:38:35;;;;;;;22.85;16.63;;;;;;;18.47;97.95;97788.72;10244753;28;20057;-56
2022/08/11 00:44:03;;;;;;;22.25;17.30;;;;;;;18.40;97.70;97784.56;10246913;28;20058;-56
2022/08/11 00:49:07;;;;;;;21.80;15.63;;;;;;;18.37;97.96;97782.06;10249229;28;20054;-56
2022/08/11 00:54:22;;;;;;;18.95;15.40;;;;;;;18.29;97.64;97792.81;10253123;28;20062;-56
2022/08/11 00:59:53;;;;;;;21.48;15.23;;;;;;;18.19;97.49;97779.09;10239554;28;20065;-57
2022/08/11 01:05:06;;;;;;;21.80;15.52;;;;;;;18.14;97.58;97785.41;10251845;28;20057;-56
2022/08/11 01:10:39;;;;;;;20.88;16.05;;;;;;;18.02;97.69;97780.53;10248830;28;20725;-58
2022/08/11 01:16:04;;;;;;;20.20;15.75;;;;;;;18.00;97.78;97783.19;10231263;28;20070;-57
2022/08/11 01:21:57;;;;;;;21.92;15.80;;;;;;;17.97;97.86;97784.16;10219940;28;20070;-57
2022/08/11 01:27:02;;;;;;;21.95;15.63;;;;;;;17.89;98.03;97788.75;10213462;28;20100;-56
2022/08/11 01:32:28;;;;;;;24.23;16.52;;;;;;;17.85;98.00;97783.69;10228663;28;20065;-56
2022/08/11 01:37:58;;;;;;;26.27;16.83;;;;;;;17.79;98.01;97778.59;10213369;28;20089;-56
2022/08/11 01:48:41;;;;;;;24.23;16.35;;;;;;;17.69;98.42;97770.09;10249198;28;19960;-57
2022/08/11 01:54:08;;;;;;;27.17;18.15;;;;;;;17.61;98.50;97767.69;10249815;28;20515;-57
2022/08/11 01:59:28;;;;;;;24.63;16.98;;;;;;;17.51;98.69;97774.97;10240112;28;20520;-57
2022/08/11 02:04:37;;;;;;;25.00;16.75;;;;;;;17.44;98.62;97783.06;10236288;28;20066;-57
2022/08/11 02:15:41;;;;;;;24.02;17.38;;;;;;;17.32;98.97;97774.63;10193594;28;20070;-58
2022/08/11 02:26:27;;;;;;;27.40;17.63;;;;;;;17.27;99.22;97780.91;10257345;28;20065;-58
2022/08/11 02:37:01;;;;;;;27.92;18.05;;;;;;;17.11;100.00;97780.47;10256008;28;20081;-57
2022/08/11 02:42:24;;;;;;;27.42;18.38;;;;;;;17.01;100.00;97781.63;10255093;28;20127;-57
2022/08/11 02:47:26;;;;;;;26.35;17.52;;;;;;;16.83;100.00;97786.41;10256288;28;20062;-57
2022/08/11 02:52:32;;;;;;;30.92;20.00;;;;;;;16.70;100.00;97777.13;10254497;28;20065;-57
2022/08/11 02:57:42;;;;;;;30.25;19.65;;;;;;;16.67;100.00;97782.44;10255963;28;20069;-57
2022/08/11 03:03:04;;;;;;;28.75;20.05;;;;;;;16.53;100.00;97767.06;10253104;28;20061;-57
2022/08/11 03:08:14;;;;;;;29.98;20.27;;;;;;;16.58;100.00;97769.56;10216124;28;20074;-57
2022/08/11 03:19:10;;;;;;;26.48;16.77;;;;;;;16.42;100.00;97785.66;10213713;28;20077;-57
2022/08/11 03:24:41;;;;;;;25.13;17.67;;;;;;;16.42;100.00;97788.28;10214038;28;20066;-57
2022/08/11 03:30:07;;;;;;;26.08;16.98;;;;;;;16.34;100.00;97777.13;10213526;28;20081;-57
2022/08/11 03:35:10;;;;;;;22.58;16.52;;;;;;;16.23;100.00;97773.88;10238567;28;20096;-57
2022/08/11 03:46:01;;;;;;;28.75;18.20;;;;;;;16.34;100.00;97792.84;10220699;28;20122;-57
2022/08/11 03:51:12;;;;;;;27.45;17.35;;;;;;;16.33;100.00;97774.56;10253054;28;20502;-57
2022/08/11 03:56:32;;;;;;;32.88;18.40;;;;;;;16.46;100.00;97784.69;10252983;28;20068;-57
2022/08/11 04:02:07;;;;;;;29.40;17.85;;;;;;;16.58;100.00;97785.28;10250666;28;20062;-57
2022/08/11 04:07:40;;;;;;;28.88;17.75;;;;;;;16.73;100.00;97795.41;10251677;28;20092;-57
2022/08/11 04:13:08;;;;;;;24.13;16.40;;;;;;;16.83;100.00;97791.66;10250193;28;20125;-57
2022/08/11 04:18:14;;;;;;;24.10;16.80;;;;;;;16.84;100.00;97775.06;10231560;28;20126;-57
2022/08/11 04:23:22;;;;;;;24.05;17.40;;;;;;;16.95;100.00;97790.47;10249583;28;20438;-57
2022/08/11 04:28:47;;;;;;;25.63;17.20;;;;;;;17.02;100.00;97785.94;10247424;28;20069;-57
2022/08/11 04:34:41;;;;;;;22.83;16.15;;;;;;;17.09;100.00;97798.84;10250692;28;20493;-57
2022/08/11 04:40:14;;;;;;;29.40;25.27;;;;;;;17.13;100.00;97804.88;10249426;28;20077;-57
2022/08/11 04:45:34;;;;;;;36.63;28.70;;;;;;;17.27;100.00;97794.88;10244151;28;20117;-57
2022/08/11 05:02:19;;;;;;;37.85;24.60;;;;;;;17.73;100.00;97801.47;10218224;28;20465;-58
2022/08/11 05:07:40;;;;;;;32.83;22.58;;;;;;;18.00;100.00;97806.81;10244357;28;20130;-58
2022/08/11 05:12:48;;;;;;;28.10;20.08;;;;;;;18.28;99.62;97792.84;10246752;28;20114;-58
2022/08/11 06:01:08;;;;;;;21.25;16.30;;;;;;;19.42;92.67;97776.78;10260127;28;20648;-58
2022/08/11 06:06:08;;;;;;;24.38;18.02;;;;;;;19.56;92.53;97771.88;10247842;28;20542;-58
2022/08/11 06:11:07;;;;;;;28.27;21.08;;;;;;;19.76;91.81;97783.44;10258204;28;20064;-57
2022/08/11 06:16:07;;;;;;;23.00;18.25;;;;;;;19.98;92.17;97775.59;10257259;28;20074;-57
2022/08/11 06:21:10;;;;;;;22.15;18.08;;;;;;;20.10;91.22;97777.75;10255526;28;20078;-57
2022/08/11 06:26:11;;;;;;;21.38;15.65;;;;;;;20.20;89.58;97771.19;10233107;28;20066;-57
2022/08/11 06:31:17;;;;;;;18.52;14.95;;;;;;;20.17;88.29;97767.84;10226716;28;20084;-57
2022/08/11 06:36:27;;;;;;;18.25;14.35;;;;;;;20.32;88.59;97761.94;10251077;28;20085;-57
2022/08/11 06:41:34;;;;;;;16.95;14.38;;;;;;;20.55;88.75;97768.94;10245324;28;20189;-57
2022/08/11 06:46:42;;;;;;;17.25;14.05;;;;;;;20.76;87.24;97764.56;10253132;28;20058;-57
2022/08/11 06:51:47;;;;;;;16.73;13.65;;;;;;;20.89;85.71;97763.13;10232873;28;20478;-58
2022/08/11 07:02:13;;;;;;;15.35;13.15;;;;;;;21.27;82.53;97765.91;10253314;28;20073;-58
2022/08/11 07:30:07;;;;;;;13.48;10.10;;;;;;;21.69;76.09;97769.34;10232528;28;20062;-58
2022/08/11 07:35:12;;;;;;;12.18;10.88;;;;;;;21.53;77.69;97763.91;10239229;28;20074;-57
2022/08/11 07:40:11;;;;;;;11.88;9.73;;;;;;;21.88;76.78;97772.84;10222203;28;20108;-58
2022/08/11 07:55:48;;;;;;;11.68;8.80;;;;;;;22.52;73.20;97763.66;10243829;28;20141;-57
2022/08/11 08:22:04;;;;;;;8.73;6.50;;;;;;;23.13;64.51;97746.50;10249181;28;20054;-57
2022/08/11 08:27:03;;;;;;;8.90;7.22;;;;;;;23.37;64.69;97738.19;10251275;28;20069;-56
2022/08/11 08:32:03;;;;;;;10.30;8.35;;;;;;;23.27;62.93;97731.69;10245931;28;20137;-58
2022/08/11 08:37:04;;;;;;;7.72;6.93;;;;;;;23.46;63.26;97726.25;10243150;28;20146;-58
2022/08/11 08:42:12;;;;;;;7.78;6.20;;;;;;;23.74;59.97;97726.50;10247332;28;20069;-58
2022/08/11 08:47:14;;;;;;;7.97;6.47;;;;;;;23.86;58.25;97719.66;10224590;28;20121;-58
2022/08/11 08:52:17;;;;;;;7.78;6.78;;;;;;;24.22;57.96;97710.66;10234953;28;20073;-59
2022/08/11 08:57:18;;;;;;;9.15;6.30;;;;;;;24.93;56.49;97711.84;10244756;28;20066;-57
2022/08/11 09:02:22;;;;;;;7.47;5.60;;;;;;;25.08;53.48;97708.25;10246467;28;20125;-57
2022/08/11 09:07:25;;;;;;;7.00;5.60;;;;;;;24.71;53.49;97718.41;10248293;28;20109;-57
2022/08/11 09:12:30;;;;;;;6.90;5.18;;;;;;;24.65;52.71;97705.50;10235396;28;20575;-57
2022/08/11 09:17:37;;;;;;;10.73;5.75;;;;;;;24.74;52.69;97694.34;10233337;28;20066;-57
2022/08/11 09:27:57;;;;;;;5.57;5.00;;;;;;;24.98;50.92;97688.53;10248650;28;20062;-57
2022/08/11 09:33:00;;;;;;;5.63;4.85;;;;;;;25.08;49.74;97692.31;10246209;28;20057;-57
2022/08/11 09:48:43;;;;;;;7.90;5.07;;;;;;;26.04;47.26;97680.13;10249999;28;20070;-56
2022/08/11 09:53:43;;;;;;;5.43;4.93;;;;;;;25.92;45.58;97667.59;10236383;28;20077;-57
2022/08/11 09:58:43;;;;;;;6.38;4.97;;;;;;;26.19;46.77;97666.78;10256255;28;20461;-57
2022/08/11 10:03:43;;;;;;;5.57;4.93;;;;;;;26.43;45.87;97665.16;10240174;28;20074;-57
2022/08/11 10:08:44;;;;;;;5.65;4.78;;;;;;;26.34;45.32;97658.63;10249763;28;20057;-57
2022/08/11 10:19:03;;;;;;;6.15;4.47;;;;;;;26.22;43.97;97658.63;10249931;28;20062;-57
2022/08/11 10:34:55;;;;;;;4.53;4.13;;;;;;;26.24;44.17;97640.75;10234703;28;20517;-57
2022/08/11 10:39:55;;;;;;;7.38;6.05;;;;;;;26.26;43.52;97636.19;10245629;28;20495;-57
2022/08/11 10:44:57;;;;;;;5.07;4.40;;;;;;;26.54;42.48;97620.06;10259426;28;20465;-57
2022/08/11 11:00:34;;;;;;;8.35;4.70;;;;;;;27.23;40.27;97617.09;10230754;28;20066;-57
2022/08/11 11:05:37;;;;;;;6.90;4.57;;;;;;;27.09;40.47;97610.06;10259618;28;20062;-57
2022/08/11 11:10:39;;;;;;;15.27;5.90;;;;;;;26.92;41.08;97613.94;10258908;28;20058;-57
2022/08/11 11:21:09;;;;;;;6.15;4.38;;;;;;;26.96;39.79;97607.44;10287593;28;20065;-58
2022/08/11 11:26:34;;;;;;;7.15;4.13;;;;;;;27.14;38.49;97613.28;10272883;28;20073;-58
2022/08/11 11:32:10;;;;;;;6.88;4.38;;;;;;;27.17;38.20;97610.41;10257982;28;20068;-58
2022/08/11 11:37:12;;;;;;;4.95;4.07;;;;;;;27.32;38.10;97605.78;10226181;28;20082;-58
2022/08/11 11:42:13;;;;;;;5.60;4.47;;;;;;;27.50;39.06;97602.81;10253145;28;20500;-58
2022/08/11 11:47:13;;;;;;;5.68;3.60;;;;;;;27.56;38.02;97608.50;10248344;28;20098;-58
2022/08/11 11:52:18;;;;;;;4.43;4.00;;;;;;;27.42;38.11;97601.50;10214248;28;20085;-58
2022/08/11 12:02:39;;;;;;;5.95;3.80;;;;;;;26.71;38.88;97597.59;10229175;28;20097;-58
2022/08/11 12:18:18;;;;;;;7.10;4.07;;;;;;;26.12;40.94;97603.34;10237255;28;19983;-57
2022/08/11 12:28:35;;;;;;;9.13;4.60;;;;;;;26.83;39.11;97600.38;10235403;28;20061;-57
2022/08/11 12:33:42;;;;;;;4.50;3.97;;;;;;;26.44;39.13;97588.84;10251607;28;20078;-58
2022/08/11 12:38:45;;;;;;;3.88;3.47;;;;;;;26.50;38.94;97591.09;10216081;28;20084;-58
2022/08/11 12:54:59;;;;;;;4.57;3.65;;;;;;;25.96;39.98;97589.34;10246147;28;20067;-59
2022/08/11 13:05:19;;;;;;;15.13;6.82;;;;;;;25.59;41.15;97591.75;10210614;28;20077;-57
2022/08/11 13:15:37;;;;;;;4.10;3.70;;;;;;;25.91;40.89;97600.28;10210828;28;20070;-57
2022/08/11 13:20:36;;;;;;;3.85;3.40;;;;;;;26.08;39.98;97601.84;10212805;28;20063;-57
2022/08/11 13:25:37;;;;;;;5.88;3.45;;;;;;;26.21;40.04;97601.06;10233406;28;20468;-58
2022/08/11 13:35:54;;;;;;;3.83;3.20;;;;;;;26.72;38.58;97575.38;10245264;28;20074;-57
2022/08/11 13:40:54;;;;;;;6.03;3.80;;;;;;;26.71;38.83;97575.47;10246085;28;20085;-57
2022/08/11 13:46:17;;;;;;;4.95;4.35;;;;;;;26.92;40.39;97573.13;10228080;28;20400;-57
2022/08/11 13:51:29;;;;;;;16.55;8.35;;;;;;;26.99;38.36;97574.41;10210051;28;20499;-57
2022/08/11 13:56:30;;;;;;;7.22;5.10;;;;;;;26.98;38.88;97580.72;10223816;28;20081;-58
2022/08/11 14:01:32;;;;;;;4.57;3.78;;;;;;;27.15;38.38;97568.84;10218729;28;20062;-58
2022/08/11 14:06:33;;;;;;;5.43;4.10;;;;;;;27.30;38.34;97559.75;10219440;28;20069;-59
2022/08/11 14:16:55;;;;;;;6.63;4.05;;;;;;;26.72;38.60;97569.16;10253040;28;20113;-57
2022/08/11 14:22:06;;;;;;;5.70;3.85;;;;;;;26.58;38.80;97557.69;10253183;28;20065;-57
2022/08/11 14:27:10;;;;;;;5.63;4.10;;;;;;;26.58;38.27;97547.03;10248257;28;20057;-57
2022/08/11 14:32:12;;;;;;;6.20;3.50;;;;;;;26.66;38.43;97549.16;10245049;28;20078;-58
2022/08/11 14:37:21;;;;;;;4.38;3.63;;;;;;;26.63;37.55;97561.81;10254628;28;20074;-58
2022/08/11 14:47:45;;;;;;;5.22;3.67;;;;;;;26.65;37.59;97551.91;10213415;28;20078;-58
2022/08/11 14:53:06;;;;;;;3.50;3.20;;;;;;;26.63;37.64;97548.50;10222376;28;20964;-58
2022/08/11 14:58:08;;;;;;;4.90;3.95;;;;;;;26.65;37.67;97552.78;10253549;28;20066;-58
2022/08/11 15:03:11;;;;;;;4.78;3.70;;;;;;;26.72;37.56;97542.53;10236866;28;20074;-59
2022/08/11 15:08:12;;;;;;;4.13;3.58;;;;;;;26.49;37.32;97547.69;10227772;28;20077;-58
2022/08/11 15:13:17;;;;;;;4.32;3.20;;;;;;;26.43;37.23;97545.44;10254610;28;20149;-58
2022/08/11 15:18:19;;;;;;;3.60;3.30;;;;;;;26.36;38.01;97552.13;10255647;28;20805;-57
2022/08/11 15:39:26;;;;;;;3.78;3.08;;;;;;;26.28;37.35;97543.84;10216949;28;20074;-57
2022/08/11 15:49:53;;;;;;;7.60;3.80;;;;;;;26.28;38.61;97533.19;10213691;28;20070;-58
2022/08/11 15:54:57;;;;;;;4.15;3.40;;;;;;;26.34;38.54;97538.91;10250058;28;20512;-58
2022/08/11 16:05:18;;;;;;;8.57;3.70;;;;;;;25.98;39.57;97534.28;10252670;28;20070;-57
2022/08/11 16:10:21;;;;;;;8.43;4.30;;;;;;;26.02;39.86;97532.25;10253782;28;20177;-58
2022/08/11 16:20:38;;;;;;;4.43;3.53;;;;;;;26.02;38.70;97550.84;10252227;28;20074;-57
2022/08/11 16:25:38;;;;;;;6.13;3.50;;;;;;;26.02;38.57;97553.50;10252588;28;20064;-57
2022/08/11 16:30:40;;;;;;;5.25;3.65;;;;;;;25.95;38.77;97542.47;10250553;28;20492;-57
2022/08/11 16:40:59;;;;;;;4.13;3.70;;;;;;;25.77;38.93;97538.38;10250630;28;20074;-57
2022/08/11 16:51:21;;;;;;;5.03;3.50;;;;;;;25.58;39.65;97555.53;10251067;28;20512;-58
2022/08/11 16:56:24;;;;;;;4.10;3.45;;;;;;;25.49;39.81;97559.59;10251310;28;20468;-58
2022/08/11 17:01:24;;;;;;;6.78;3.67;;;;;;;25.32;39.88;97559.84;10251767;28;20054;-58
2022/08/11 17:17:12;;;;;;;8.40;3.83;;;;;;;24.82;41.41;97583.25;10249310;28;20069;-56
2022/08/11 17:27:30;;;;;;;5.82;3.75;;;;;;;24.43;42.14;97575.94;10235628;28;20125;-57
2022/08/11 17:37:52;;;;;;;5.47;3.95;;;;;;;24.19;42.96;97587.06;10246759;28;20077;-56
2022/08/11 17:48:27;;;;;;;4.93;3.78;;;;;;;23.91;43.70;97595.72;10225647;28;20062;-57
2022/08/11 18:04:10;;;;;;;10.70;7.00;;;;;;;23.51;46.43;97619.16;10209808;28;20066;-58
